sensor_id;sensor_type;location;lat;lon;timestamp;P1;P2;P0
46591;PMS6003;32314;48.748;9.656;2023-07-29T00:04:06;1.00;1.00;1.00
46591;PMS6003;32314;48.748;9.656;2023-07-29T00:07:01;1.00;1.00;1.00
46591;PMS6003;32314;48.748;9.656;2023-07-29T00:09:56;1.00;1.00;1.00
46591;PMS6003;32314;48.748;9.656;2023-07-29T00:13:21;0.00;0.00;0.00
46591;PMS6003;32314;48.748;9.656;2023-07-29T00:16:07;0.25;0.25;0.25
46591;PMS6003;32314;48.748;9.656;2023-07-29T00:19:04;2.00;2.00;2.00
46591;PMS6003;32314;48.748;9.656;2023-07-29T00:26:03;0.00;0.00;0.00
46591;PMS6003;32314;48.748;9.656;2023-07-29T00:28:49;0.00;0.00;0.00
46591;PMS6003;32314;48.748;9.656;2023-07-29T00:31:38;1.00;0.00;0.00
46591;PMS6003;32314;48.748;9.656;2023-07-29T00:38:01;1.00;1.00;1.00
46591;PMS6003;32314;48.748;9.656;2023-07-29T00:41:29;2.00;2.00;1.50
46591;PMS6003;32314;48.748;9.656;2023-07-29T00:44:29;0.00;0.00;0.00
46591;PMS6003;32314;48.748;9.656;2023-07-29T00:47:20;0.00;0.00;0.00
46591;PMS6003;32314;48.748;9.656;2023-07-29T00:50:14;0.00;0.00;0.00
46591;PMS6003;32314;48.748;9.656;2023-07-29T00:53:07;0.00;0.00;0.00
46591;PMS6003;32314;48.748;9.656;2023-07-29T00:56:02;0.00;0.00;0.00
46591;PMS6003;32314;48.748;9.656;2023-07-29T00:59:03;0.50;0.50;0.25
46591;PMS6003;32314;48.748;9.656;2023-07-29T01:09:12;0.00;0.00;0.00
46591;PMS6003;32314;48.748;9.656;2023-07-29T01:12:24;0.00;0.00;0.00
46591;PMS6003;32314;48.748;9.656;2023-07-29T01:15:54;0.75;0.00;0.00
46591;PMS6003;32314;48.748;9.656;2023-07-29T01:18:44;0.00;0.00;0.00
46591;PMS6003;32314;48.748;9.656;2023-07-29T01:21:48;0.75;0.75;0.00
46591;PMS6003;32314;48.748;9.656;2023-07-29T01:24:51;3.00;1.00;1.00
46591;PMS6003;32314;48.748;9.656;2023-07-29T01:27:53;1.00;1.00;1.00
46591;PMS6003;32314;48.748;9.656;2023-07-29T01:34:42;1.00;1.00;1.00
46591;PMS6003;32314;48.748;9.656;2023-07-29T01:37:49;1.00;1.00;1.00
46591;PMS6003;32314;48.748;9.656;2023-07-29T01:40:54;0.00;0.00;0.00
46591;PMS6003;32314;48.748;9.656;2023-07-29T01:43:56;0.00;0.00;0.00
46591;PMS6003;32314;48.748;9.656;2023-07-29T01:46:59;0.75;0.75;0.75
46591;PMS6003;32314;48.748;9.656;2023-07-29T01:49:56;0.00;0.00;0.00
46591;PMS6003;32314;48.748;9.656;2023-07-29T01:52:51;0.00;0.00;0.00
46591;PMS6003;32314;48.748;9.656;2023-07-29T01:55:49;1.00;1.00;1.00
46591;PMS6003;32314;48.748;9.656;2023-07-29T01:58:44;1.00;1.00;1.00
46591;PMS6003;32314;48.748;9.656;2023-07-29T02:01:33;0.00;0.00;0.00
46591;PMS6003;32314;48.748;9.656;2023-07-29T02:04:45;0.50;0.50;0.50
46591;PMS6003;32314;48.748;9.656;2023-07-29T02:07:41;0.00;0.00;0.00
46591;PMS6003;32314;48.748;9.656;2023-07-29T02:10:49;1.25;1.25;1.00
46591;PMS6003;32314;48.748;9.656;2023-07-29T02:13:43;0.00;0.00;0.00
46591;PMS6003;32314;48.748;9.656;2023-07-29T02:16:30;1.00;1.00;1.00
46591;PMS6003;32314;48.748;9.656;2023-07-29T02:19:22;0.25;0.25;0.25
46591;PMS6003;32314;48.748;9.656;2023-07-29T02:22:15;0.00;0.00;0.00
46591;PMS6003;32314;48.748;9.656;2023-07-29T02:25:16;0.00;0.00;0.00
46591;PMS6003;32314;48.748;9.656;2023-07-29T02:28:08;0.00;0.00;0.00
46591;PMS6003;32314;48.748;9.656;2023-07-29T02:34:31;0.00;0.00;0.00
46591;PMS6003;32314;48.748;9.656;2023-07-29T02:37:24;1.25;0.00;0.00
46591;PMS6003;32314;48.748;9.656;2023-07-29T02:40:23;0.00;0.00;0.00
46591;PMS6003;32314;48.748;9.656;2023-07-29T02:43:22;0.00;0.00;0.00
46591;PMS6003;32314;48.748;9.656;2023-07-29T02:46:24;0.00;0.00;0.00
46591;PMS6003;32314;48.748;9.656;2023-07-29T02:49:13;0.00;0.00;0.00
46591;PMS6003;32314;48.748;9.656;2023-07-29T02:52:01;0.00;0.00;0.00
46591;PMS6003;32314;48.748;9.656;2023-07-29T02:54:51;0.50;0.50;0.50
46591;PMS6003;32314;48.748;9.656;2023-07-29T02:57:43;1.00;1.00;1.00
46591;PMS6003;32314;48.748;9.656;2023-07-29T03:00:35;0.75;0.75;0.75
46591;PMS6003;32314;48.748;9.656;2023-07-29T03:03:41;1.00;1.00;1.00
46591;PMS6003;32314;48.748;9.656;2023-07-29T03:06:29;2.00;2.00;1.00
46591;PMS6003;32314;48.748;9.656;2023-07-29T03:09:16;2.00;2.00;2.00
46591;PMS6003;32314;48.748;9.656;2023-07-29T03:12:07;1.00;1.00;1.00
46591;PMS6003;32314;48.748;9.656;2023-07-29T03:14:56;2.50;2.50;2.50
46591;PMS6003;32314;48.748;9.656;2023-07-29T03:17:45;1.00;1.00;1.00
46591;PMS6003;32314;48.748;9.656;2023-07-29T03:20:39;3.00;3.00;2.50
46591;PMS6003;32314;48.748;9.656;2023-07-29T03:23:30;1.00;1.00;1.00
46591;PMS6003;32314;48.748;9.656;2023-07-29T03:26:23;1.00;1.00;1.00
46591;PMS6003;32314;48.748;9.656;2023-07-29T03:29:14;3.00;1.00;1.00
46591;PMS6003;32314;48.748;9.656;2023-07-29T03:32:03;1.25;1.25;1.25
46591;PMS6003;32314;48.748;9.656;2023-07-29T03:34:52;2.00;2.00;1.50
46591;PMS6003;32314;48.748;9.656;2023-07-29T03:37:42;1.75;1.00;1.00
46591;PMS6003;32314;48.748;9.656;2023-07-29T03:40:50;3.00;2.00;2.00
46591;PMS6003;32314;48.748;9.656;2023-07-29T03:43:46;2.00;2.00;1.75
46591;PMS6003;32314;48.748;9.656;2023-07-29T03:46:40;4.00;2.50;2.00
46591;PMS6003;32314;48.748;9.656;2023-07-29T03:49:32;2.00;2.00;1.50
46591;PMS6003;32314;48.748;9.656;2023-07-29T03:52:22;0.00;0.00;0.00
46591;PMS6003;32314;48.748;9.656;2023-07-29T03:58:11;1.75;1.75;1.50
46591;PMS6003;32314;48.748;9.656;2023-07-29T04:01:20;1.75;1.75;1.75
46591;PMS6003;32314;48.748;9.656;2023-07-29T04:04:06;3.25;2.00;2.00
46591;PMS6003;32314;48.748;9.656;2023-07-29T04:06:55;1.75;1.75;1.00
46591;PMS6003;32314;48.748;9.656;2023-07-29T04:09:52;2.75;2.75;2.00
46591;PMS6003;32314;48.748;9.656;2023-07-29T04:12:41;1.00;1.00;1.00
46591;PMS6003;32314;48.748;9.656;2023-07-29T04:15:30;1.00;1.00;1.00
46591;PMS6003;32314;48.748;9.656;2023-07-29T04:18:37;2.00;2.00;1.00
46591;PMS6003;32314;48.748;9.656;2023-07-29T04:21:29;2.00;2.00;1.75
46591;PMS6003;32314;48.748;9.656;2023-07-29T04:24:33;2.00;2.00;1.50
46591;PMS6003;32314;48.748;9.656;2023-07-29T04:27:25;2.00;2.00;2.00
46591;PMS6003;32314;48.748;9.656;2023-07-29T04:30:17;1.00;1.00;1.00
46591;PMS6003;32314;48.748;9.656;2023-07-29T04:33:26;1.75;0.50;0.00
46591;PMS6003;32314;48.748;9.656;2023-07-29T04:36:27;0.00;0.00;0.00
46591;PMS6003;32314;48.748;9.656;2023-07-29T04:39:16;1.00;1.00;1.00
46591;PMS6003;32314;48.748;9.656;2023-07-29T04:42:07;4.00;2.50;2.00
46591;PMS6003;32314;48.748;9.656;2023-07-29T04:45:01;2.00;2.00;2.00
46591;PMS6003;32314;48.748;9.656;2023-07-29T04:48:16;3.75;3.00;2.00
46591;PMS6003;32314;48.748;9.656;2023-07-29T04:51:16;1.50;1.50;1.25
46591;PMS6003;32314;48.748;9.656;2023-07-29T04:54:02;2.50;2.50;2.00
46591;PMS6003;32314;48.748;9.656;2023-07-29T04:56:48;2.00;2.00;2.00
46591;PMS6003;32314;48.748;9.656;2023-07-29T04:59:46;1.00;1.00;1.00
46591;PMS6003;32314;48.748;9.656;2023-07-29T05:02:45;1.25;1.25;1.25
46591;PMS6003;32314;48.748;9.656;2023-07-29T05:05:37;1.25;1.25;1.00
46591;PMS6003;32314;48.748;9.656;2023-07-29T05:08:23;1.00;1.00;1.00
46591;PMS6003;32314;48.748;9.656;2023-07-29T05:11:11;4.25;2.00;1.00
46591;PMS6003;32314;48.748;9.656;2023-07-29T05:13:59;2.75;2.75;2.00
46591;PMS6003;32314;48.748;9.656;2023-07-29T05:16:47;2.50;2.25;1.75
46591;PMS6003;32314;48.748;9.656;2023-07-29T05:19:38;2.75;2.75;2.00
46591;PMS6003;32314;48.748;9.656;2023-07-29T05:22:37;1.75;1.75;1.75
46591;PMS6003;32314;48.748;9.656;2023-07-29T05:29:00;2.00;2.00;2.00
46591;PMS6003;32314;48.748;9.656;2023-07-29T05:32:00;3.00;3.00;2.50
46591;PMS6003;32314;48.748;9.656;2023-07-29T05:38:13;2.50;1.75;1.75
46591;PMS6003;32314;48.748;9.656;2023-07-29T05:41:14;2.00;2.00;2.00
46591;PMS6003;32314;48.748;9.656;2023-07-29T05:44:36;1.75;1.75;1.00
46591;PMS6003;32314;48.748;9.656;2023-07-29T05:52:04;2.75;2.75;2.75
46591;PMS6003;32314;48.748;9.656;2023-07-29T05:55:07;2.00;2.00;2.00
46591;PMS6003;32314;48.748;9.656;2023-07-29T06:01:43;4.00;4.00;3.25
46591;PMS6003;32314;48.748;9.656;2023-07-29T06:04:43;4.00;2.25;2.00
46591;PMS6003;32314;48.748;9.656;2023-07-29T06:15:10;3.00;3.00;3.00
46591;PMS6003;32314;48.748;9.656;2023-07-29T06:19:05;4.00;4.00;4.00
46591;PMS6003;32314;48.748;9.656;2023-07-29T06:26:06;4.00;4.00;3.00
46591;PMS6003;32314;48.748;9.656;2023-07-29T06:39:32;4.00;4.00;3.25
46591;PMS6003;32314;48.748;9.656;2023-07-29T06:43:00;3.00;3.00;2.50
46591;PMS6003;32314;48.748;9.656;2023-07-29T06:46:16;5.75;5.75;4.75
46591;PMS6003;32314;48.748;9.656;2023-07-29T06:49:54;4.25;4.25;3.50
46591;PMS6003;32314;48.748;9.656;2023-07-29T06:53:37;4.75;4.75;4.25
46591;PMS6003;32314;48.748;9.656;2023-07-29T07:03:28;4.25;4.25;4.00
46591;PMS6003;32314;48.748;9.656;2023-07-29T07:06:20;6.00;4.00;4.00
46591;PMS6003;32314;48.748;9.656;2023-07-29T07:09:34;5.00;3.50;3.00
46591;PMS6003;32314;48.748;9.656;2023-07-29T07:12:47;4.00;4.00;4.00
46591;PMS6003;32314;48.748;9.656;2023-07-29T07:20:02;3.50;3.50;3.00
46591;PMS6003;32314;48.748;9.656;2023-07-29T07:23:29;4.75;4.75;4.00
46591;PMS6003;32314;48.748;9.656;2023-07-29T07:26:30;3.75;3.50;3.50
46591;PMS6003;32314;48.748;9.656;2023-07-29T07:29:25;2.25;2.25;2.25
46591;PMS6003;32314;48.748;9.656;2023-07-29T07:32:26;4.25;4.25;3.00
46591;PMS6003;32314;48.748;9.656;2023-07-29T07:35:28;3.50;3.50;2.75
46591;PMS6003;32314;48.748;9.656;2023-07-29T07:38:38;4.50;4.00;3.00
46591;PMS6003;32314;48.748;9.656;2023-07-29T07:41:32;2.75;2.75;2.50
46591;PMS6003;32314;48.748;9.656;2023-07-29T07:44:20;2.00;2.00;1.25
46591;PMS6003;32314;48.748;9.656;2023-07-29T07:51:15;2.75;2.00;1.25
46591;PMS6003;32314;48.748;9.656;2023-07-29T07:54:19;2.50;1.00;1.00
46591;PMS6003;32314;48.748;9.656;2023-07-29T07:58:04;1.75;1.75;1.25
46591;PMS6003;32314;48.748;9.656;2023-07-29T08:01:00;0.25;0.25;0.25
46591;PMS6003;32314;48.748;9.656;2023-07-29T08:10:48;1.25;1.25;1.00
46591;PMS6003;32314;48.748;9.656;2023-07-29T08:13:48;2.00;1.00;1.00
46591;PMS6003;32314;48.748;9.656;2023-07-29T08:16:47;0.00;0.00;0.00
46591;PMS6003;32314;48.748;9.656;2023-07-29T08:19:33;0.75;0.75;0.50
46591;PMS6003;32314;48.748;9.656;2023-07-29T08:22:39;3.25;1.00;1.00
46591;PMS6003;32314;48.748;9.656;2023-07-29T08:25:36;1.00;1.00;1.00
46591;PMS6003;32314;48.748;9.656;2023-07-29T08:28:40;0.00;0.00;0.00
46591;PMS6003;32314;48.748;9.656;2023-07-29T08:31:44;0.50;0.50;0.25
46591;PMS6003;32314;48.748;9.656;2023-07-29T09:04:26;0.50;0.50;0.50
46591;PMS6003;32314;48.748;9.656;2023-07-29T09:07:40;1.00;1.00;1.00
46591;PMS6003;32314;48.748;9.656;2023-07-29T09:10:27;2.00;2.00;2.00
46591;PMS6003;32314;48.748;9.656;2023-07-29T09:13:28;1.50;1.50;1.25
46591;PMS6003;32314;48.748;9.656;2023-07-29T09:16:17;3.00;3.00;2.00
46591;PMS6003;32314;48.748;9.656;2023-07-29T09:19:46;3.75;0.50;0.50
46591;PMS6003;32314;48.748;9.656;2023-07-29T09:22:58;2.00;2.00;2.00
46591;PMS6003;32314;48.748;9.656;2023-07-29T09:26:34;1.00;1.00;1.00
46591;PMS6003;32314;48.748;9.656;2023-07-29T09:34:31;3.00;3.00;3.00
46591;PMS6003;32314;48.748;9.656;2023-07-29T09:41:47;2.25;2.25;1.75
46591;PMS6003;32314;48.748;9.656;2023-07-29T09:44:35;2.67;2.67;2.67
46591;PMS6003;32314;48.748;9.656;2023-07-29T09:47:27;1.75;1.75;1.50
46591;PMS6003;32314;48.748;9.656;2023-07-29T09:50:26;2.00;2.00;1.67
46591;PMS6003;32314;48.748;9.656;2023-07-29T09:57:19;1.67;1.67;1.00
46591;PMS6003;32314;48.748;9.656;2023-07-29T10:00:40;1.67;1.67;1.67
46591;PMS6003;32314;48.748;9.656;2023-07-29T10:03:49;2.00;2.00;1.00
46591;PMS6003;32314;48.748;9.656;2023-07-29T10:07:05;1.00;1.00;0.75
46591;PMS6003;32314;48.748;9.656;2023-07-29T10:10:25;1.00;1.00;1.00
46591;PMS6003;32314;48.748;9.656;2023-07-29T10:13:20;0.25;0.25;0.25
46591;PMS6003;32314;48.748;9.656;2023-07-29T10:17:03;0.25;0.25;0.25
46591;PMS6003;32314;48.748;9.656;2023-07-29T10:24:21;2.75;1.00;1.00
46591;PMS6003;32314;48.748;9.656;2023-07-29T10:34:24;0.75;0.75;0.75
46591;PMS6003;32314;48.748;9.656;2023-07-29T10:37:29;2.25;2.25;1.75
46591;PMS6003;32314;48.748;9.656;2023-07-29T10:49:00;4.00;1.50;1.00
46591;PMS6003;32314;48.748;9.656;2023-07-29T10:56:31;3.00;3.00;2.75
46591;PMS6003;32314;48.748;9.656;2023-07-29T10:59:37;2.00;2.00;1.25
46591;PMS6003;32314;48.748;9.656;2023-07-29T11:07:26;1.25;1.25;0.25
46591;PMS6003;32314;48.748;9.656;2023-07-29T11:11:11;0.00;0.00;0.00
46591;PMS6003;32314;48.748;9.656;2023-07-29T11:14:30;0.75;0.75;0.75
46591;PMS6003;32314;48.748;9.656;2023-07-29T11:17:52;0.00;0.00;0.00
46591;PMS6003;32314;48.748;9.656;2023-07-29T11:21:00;0.00;0.00;0.00
46591;PMS6003;32314;48.748;9.656;2023-07-29T11:24:10;2.00;0.00;0.00
46591;PMS6003;32314;48.748;9.656;2023-07-29T11:27:10;0.33;0.33;0.33
46591;PMS6003;32314;48.748;9.656;2023-07-29T11:30:18;1.00;1.00;1.00
46591;PMS6003;32314;48.748;9.656;2023-07-29T11:33:26;0.00;0.00;0.00
46591;PMS6003;32314;48.748;9.656;2023-07-29T11:36:21;0.00;0.00;0.00
46591;PMS6003;32314;48.748;9.656;2023-07-29T11:39:39;0.67;0.00;0.00
46591;PMS6003;32314;48.748;9.656;2023-07-29T11:42:34;0.00;0.00;0.00
46591;PMS6003;32314;48.748;9.656;2023-07-29T11:45:29;0.00;0.00;0.00
46591;PMS6003;32314;48.748;9.656;2023-07-29T11:48:39;1.33;1.00;1.00
46591;PMS6003;32314;48.748;9.656;2023-07-29T11:55:02;0.00;0.00;0.00
46591;PMS6003;32314;48.748;9.656;2023-07-29T11:58:13;0.00;0.00;0.00
46591;PMS6003;32314;48.748;9.656;2023-07-29T12:01:14;0.00;0.00;0.00
46591;PMS6003;32314;48.748;9.656;2023-07-29T12:04:11;1.00;1.00;0.67
46591;PMS6003;32314;48.748;9.656;2023-07-29T12:07:31;1.00;1.00;0.67
46591;PMS6003;32314;48.748;9.656;2023-07-29T12:10:29;1.33;1.00;1.00
46591;PMS6003;32314;48.748;9.656;2023-07-29T12:13:41;1.00;1.00;1.00
46591;PMS6003;32314;48.748;9.656;2023-07-29T12:20:52;0.75;0.75;0.75
46591;PMS6003;32314;48.748;9.656;2023-07-29T12:23:53;0.75;0.75;0.75
46591;PMS6003;32314;48.748;9.656;2023-07-29T12:30:47;0.50;0.50;0.25
46591;PMS6003;32314;48.748;9.656;2023-07-29T12:37:38;0.75;0.75;0.75
46591;PMS6003;32314;48.748;9.656;2023-07-29T12:45:02;0.25;0.25;0.25
46591;PMS6003;32314;48.748;9.656;2023-07-29T12:56:17;1.25;1.25;1.00
46591;PMS6003;32314;48.748;9.656;2023-07-29T13:00:10;1.00;1.00;0.25
46591;PMS6003;32314;48.748;9.656;2023-07-29T13:08:08;2.50;1.00;1.00
46591;PMS6003;32314;48.748;9.656;2023-07-29T13:11:36;0.00;0.00;0.00
46591;PMS6003;32314;48.748;9.656;2023-07-29T13:14:28;0.25;0.25;0.00
46591;PMS6003;32314;48.748;9.656;2023-07-29T13:29:04;0.25;0.25;0.00
46591;PMS6003;32314;48.748;9.656;2023-07-29T13:48:26;2.00;2.00;1.00
46591;PMS6003;32314;48.748;9.656;2023-07-29T13:51:52;1.00;1.00;1.00
46591;PMS6003;32314;48.748;9.656;2023-07-29T13:55:09;0.25;0.25;0.00
46591;PMS6003;32314;48.748;9.656;2023-07-29T13:58:32;1.00;1.00;1.00
46591;PMS6003;32314;48.748;9.656;2023-07-29T14:08:36;0.00;0.00;0.00
46591;PMS6003;32314;48.748;9.656;2023-07-29T14:12:23;1.00;1.00;0.75
46591;PMS6003;32314;48.748;9.656;2023-07-29T14:15:52;2.00;2.00;1.75
46591;PMS6003;32314;48.748;9.656;2023-07-29T14:18:46;1.00;1.00;1.00
46591;PMS6003;32314;48.748;9.656;2023-07-29T14:21:59;1.00;1.00;1.00
46591;PMS6003;32314;48.748;9.656;2023-07-29T14:25:08;1.00;0.75;0.75
46591;PMS6003;32314;48.748;9.656;2023-07-29T14:28:19;0.00;0.00;0.00
46591;PMS6003;32314;48.748;9.656;2023-07-29T14:31:16;0.00;0.00;0.00
46591;PMS6003;32314;48.748;9.656;2023-07-29T14:34:15;2.00;2.00;1.75
46591;PMS6003;32314;48.748;9.656;2023-07-29T14:37:09;0.75;0.75;0.50
46591;PMS6003;32314;48.748;9.656;2023-07-29T14:40:02;1.00;1.00;1.00
46591;PMS6003;32314;48.748;9.656;2023-07-29T14:42:54;1.00;1.00;1.00
46591;PMS6003;32314;48.748;9.656;2023-07-29T14:45:51;1.00;1.00;1.00
46591;PMS6003;32314;48.748;9.656;2023-07-29T14:48:50;1.00;1.00;0.50
46591;PMS6003;32314;48.748;9.656;2023-07-29T14:52:05;0.25;0.25;0.25
46591;PMS6003;32314;48.748;9.656;2023-07-29T14:54:54;1.00;1.00;0.75
46591;PMS6003;32314;48.748;9.656;2023-07-29T14:58:07;1.00;1.00;1.00
46591;PMS6003;32314;48.748;9.656;2023-07-29T15:00:58;2.00;2.00;1.25
46591;PMS6003;32314;48.748;9.656;2023-07-29T15:04:01;1.00;1.00;0.50
46591;PMS6003;32314;48.748;9.656;2023-07-29T15:06:49;1.00;1.00;1.00
46591;PMS6003;32314;48.748;9.656;2023-07-29T15:10:02;1.00;1.00;0.50
46591;PMS6003;32314;48.748;9.656;2023-07-29T15:13:25;1.25;1.25;1.00
46591;PMS6003;32314;48.748;9.656;2023-07-29T15:16:31;1.00;1.00;0.00
46591;PMS6003;32314;48.748;9.656;2023-07-29T15:19:40;0.75;0.75;0.00
46591;PMS6003;32314;48.748;9.656;2023-07-29T15:22:31;0.50;0.50;0.50
46591;PMS6003;32314;48.748;9.656;2023-07-29T15:25:27;3.00;2.00;2.00
46591;PMS6003;32314;48.748;9.656;2023-07-29T15:28:30;1.00;1.00;0.00
46591;PMS6003;32314;48.748;9.656;2023-07-29T15:31:33;1.00;1.00;1.00
46591;PMS6003;32314;48.748;9.656;2023-07-29T15:34:25;1.00;1.00;0.50
46591;PMS6003;32314;48.748;9.656;2023-07-29T15:37:11;1.50;1.50;1.25
46591;PMS6003;32314;48.748;9.656;2023-07-29T15:39:56;1.00;1.00;1.00
46591;PMS6003;32314;48.748;9.656;2023-07-29T15:42:45;2.00;2.00;1.50
46591;PMS6003;32314;48.748;9.656;2023-07-29T15:45:35;1.50;1.50;1.00
46591;PMS6003;32314;48.748;9.656;2023-07-29T15:48:30;0.50;0.50;0.00
46591;PMS6003;32314;48.748;9.656;2023-07-29T15:51:19;1.00;1.00;0.00
46591;PMS6003;32314;48.748;9.656;2023-07-29T15:54:22;1.00;1.00;1.00
46591;PMS6003;32314;48.748;9.656;2023-07-29T15:57:19;0.00;0.00;0.00
46591;PMS6003;32314;48.748;9.656;2023-07-29T16:00:09;1.00;1.00;1.00
46591;PMS6003;32314;48.748;9.656;2023-07-29T16:03:04;1.00;1.00;1.00
46591;PMS6003;32314;48.748;9.656;2023-07-29T16:05:52;0.25;0.25;0.00
46591;PMS6003;32314;48.748;9.656;2023-07-29T16:08:41;1.25;1.25;1.00
46591;PMS6003;32314;48.748;9.656;2023-07-29T16:11:30;1.75;0.50;0.25
46591;PMS6003;32314;48.748;9.656;2023-07-29T16:14:16;2.00;1.00;1.00
46591;PMS6003;32314;48.748;9.656;2023-07-29T16:17:13;0.00;0.00;0.00
46591;PMS6003;32314;48.748;9.656;2023-07-29T16:20:05;1.75;1.75;1.50
46591;PMS6003;32314;48.748;9.656;2023-07-29T16:22:58;2.50;1.75;1.50
46591;PMS6003;32314;48.748;9.656;2023-07-29T16:25:57;1.50;0.00;0.00
46591;PMS6003;32314;48.748;9.656;2023-07-29T16:29:08;1.00;1.00;0.00
46591;PMS6003;32314;48.748;9.656;2023-07-29T16:35:06;1.50;1.50;1.25
46591;PMS6003;32314;48.748;9.656;2023-07-29T16:37:55;1.25;1.25;1.00
46591;PMS6003;32314;48.748;9.656;2023-07-29T16:40:53;1.00;1.00;0.50
46591;PMS6003;32314;48.748;9.656;2023-07-29T16:43:49;1.00;1.00;1.00
46591;PMS6003;32314;48.748;9.656;2023-07-29T16:46:38;0.00;0.00;0.00
46591;PMS6003;32314;48.748;9.656;2023-07-29T16:49:43;0.25;0.25;0.25
46591;PMS6003;32314;48.748;9.656;2023-07-29T16:52:59;1.00;1.00;0.50
46591;PMS6003;32314;48.748;9.656;2023-07-29T16:55:58;2.00;2.00;1.50
46591;PMS6003;32314;48.748;9.656;2023-07-29T16:58:53;0.50;0.50;0.50
46591;PMS6003;32314;48.748;9.656;2023-07-29T17:01:50;1.25;1.25;1.25
46591;PMS6003;32314;48.748;9.656;2023-07-29T17:04:39;1.00;1.00;1.00
46591;PMS6003;32314;48.748;9.656;2023-07-29T17:07:33;0.00;0.00;0.00
46591;PMS6003;32314;48.748;9.656;2023-07-29T17:10:38;2.75;1.50;0.75
46591;PMS6003;32314;48.748;9.656;2023-07-29T17:13:34;1.00;1.00;0.00
46591;PMS6003;32314;48.748;9.656;2023-07-29T17:16:38;1.00;1.00;1.00
46591;PMS6003;32314;48.748;9.656;2023-07-29T17:19:39;0.75;0.75;0.00
46591;PMS6003;32314;48.748;9.656;2023-07-29T17:22:36;0.00;0.00;0.00
46591;PMS6003;32314;48.748;9.656;2023-07-29T17:25:58;0.50;0.50;0.00
46591;PMS6003;32314;48.748;9.656;2023-07-29T17:29:41;0.00;0.00;0.00
46591;PMS6003;32314;48.748;9.656;2023-07-29T17:33:08;0.25;0.25;0.25
46591;PMS6003;32314;48.748;9.656;2023-07-29T17:36:30;2.75;1.50;1.50
46591;PMS6003;32314;48.748;9.656;2023-07-29T17:39:19;0.75;0.75;0.25
46591;PMS6003;32314;48.748;9.656;2023-07-29T17:49:34;2.25;2.25;2.25
46591;PMS6003;32314;48.748;9.656;2023-07-29T17:52:46;2.25;2.25;2.00
46591;PMS6003;32314;48.748;9.656;2023-07-29T17:56:13;4.00;1.00;1.00
46591;PMS6003;32314;48.748;9.656;2023-07-29T17:59:33;1.00;1.00;1.00
46591;PMS6003;32314;48.748;9.656;2023-07-29T18:02:51;2.00;2.00;2.00
46591;PMS6003;32314;48.748;9.656;2023-07-29T18:06:13;3.50;2.00;1.75
46591;PMS6003;32314;48.748;9.656;2023-07-29T18:09:33;0.75;0.75;0.75
46591;PMS6003;32314;48.748;9.656;2023-07-29T18:12:26;1.75;1.75;1.50
46591;PMS6003;32314;48.748;9.656;2023-07-29T18:15:24;3.75;2.00;2.00
46591;PMS6003;32314;48.748;9.656;2023-07-29T18:18:35;1.00;1.00;1.00
46591;PMS6003;32314;48.748;9.656;2023-07-29T18:21:34;4.00;2.75;2.50
46591;PMS6003;32314;48.748;9.656;2023-07-29T18:24:59;2.75;2.75;2.00
46591;PMS6003;32314;48.748;9.656;2023-07-29T18:27:59;3.25;1.50;1.25
46591;PMS6003;32314;48.748;9.656;2023-07-29T18:30:56;2.75;2.50;1.50
46591;PMS6003;32314;48.748;9.656;2023-07-29T18:37:14;3.00;1.75;1.00
46591;PMS6003;32314;48.748;9.656;2023-07-29T18:40:09;2.00;2.00;2.00
46591;PMS6003;32314;48.748;9.656;2023-07-29T18:43:14;3.00;3.00;2.00
46591;PMS6003;32314;48.748;9.656;2023-07-29T18:46:14;2.00;2.00;2.00
46591;PMS6003;32314;48.748;9.656;2023-07-29T18:49:43;5.00;3.25;2.25
46591;PMS6003;32314;48.748;9.656;2023-07-29T18:52:58;3.25;3.00;2.00
46591;PMS6003;32314;48.748;9.656;2023-07-29T18:56:10;4.00;4.00;3.75
46591;PMS6003;32314;48.748;9.656;2023-07-29T18:59:21;4.25;4.25;4.00
46591;PMS6003;32314;48.748;9.656;2023-07-29T19:02:22;4.00;4.00;3.00
46591;PMS6003;32314;48.748;9.656;2023-07-29T19:05:25;4.75;3.00;3.00
46591;PMS6003;32314;48.748;9.656;2023-07-29T19:08:21;5.00;5.00;3.50
46591;PMS6003;32314;48.748;9.656;2023-07-29T19:11:38;4.50;4.50;4.00
46591;PMS6003;32314;48.748;9.656;2023-07-29T19:14:24;5.00;5.00;4.00
46591;PMS6003;32314;48.748;9.656;2023-07-29T19:17:44;5.25;5.25;4.25
46591;PMS6003;32314;48.748;9.656;2023-07-29T19:20:53;5.50;5.50;5.00
46591;PMS6003;32314;48.748;9.656;2023-07-29T19:24:00;5.00;5.00;4.00
46591;PMS6003;32314;48.748;9.656;2023-07-29T19:26:53;4.50;4.50;3.75
46591;PMS6003;32314;48.748;9.656;2023-07-29T19:29:58;5.00;5.00;4.00
46591;PMS6003;32314;48.748;9.656;2023-07-29T19:33:23;5.00;4.00;3.00
46591;PMS6003;32314;48.748;9.656;2023-07-29T19:36:25;5.00;5.00;5.00
46591;PMS6003;32314;48.748;9.656;2023-07-29T19:39:44;4.00;4.00;3.50
46591;PMS6003;32314;48.748;9.656;2023-07-29T19:42:41;6.25;5.00;5.00
46591;PMS6003;32314;48.748;9.656;2023-07-29T19:45:30;4.75;4.75;3.50
46591;PMS6003;32314;48.748;9.656;2023-07-29T19:48:30;6.00;4.25;4.00
46591;PMS6003;32314;48.748;9.656;2023-07-29T19:51:31;4.00;4.00;3.25
46591;PMS6003;32314;48.748;9.656;2023-07-29T19:54:43;5.75;5.75;5.25
46591;PMS6003;32314;48.748;9.656;2023-07-29T19:57:46;5.25;5.25;4.50
46591;PMS6003;32314;48.748;9.656;2023-07-29T20:00:49;6.25;6.00;4.00
46591;PMS6003;32314;48.748;9.656;2023-07-29T20:04:21;7.25;5.50;5.25
46591;PMS6003;32314;48.748;9.656;2023-07-29T20:07:20;4.50;4.50;3.75
46591;PMS6003;32314;48.748;9.656;2023-07-29T20:10:44;5.00;5.00;5.00
46591;PMS6003;32314;48.748;9.656;2023-07-29T20:13:40;5.25;5.25;4.75
46591;PMS6003;32314;48.748;9.656;2023-07-29T20:16:47;5.75;5.75;5.00
46591;PMS6003;32314;48.748;9.656;2023-07-29T20:20:13;5.25;5.25;5.00
46591;PMS6003;32314;48.748;9.656;2023-07-29T20:23:01;5.00;5.00;4.75
46591;PMS6003;32314;48.748;9.656;2023-07-29T20:25:51;8.00;6.25;5.00
46591;PMS6003;32314;48.748;9.656;2023-07-29T20:28:39;6.00;6.00;5.00
46591;PMS6003;32314;48.748;9.656;2023-07-29T20:31:36;4.75;4.75;4.00
46591;PMS6003;32314;48.748;9.656;2023-07-29T20:34:28;5.50;5.50;5.00
46591;PMS6003;32314;48.748;9.656;2023-07-29T20:37:25;5.50;5.50;4.75
46591;PMS6003;32314;48.748;9.656;2023-07-29T20:40:32;5.50;5.50;4.50
46591;PMS6003;32314;48.748;9.656;2023-07-29T20:43:50;8.00;6.00;5.00
46591;PMS6003;32314;48.748;9.656;2023-07-29T20:46:50;7.75;7.75;6.00
46591;PMS6003;32314;48.748;9.656;2023-07-29T20:50:03;7.75;7.00;6.00
46591;PMS6003;32314;48.748;9.656;2023-07-29T20:53:20;7.00;5.50;4.00
46591;PMS6003;32314;48.748;9.656;2023-07-29T20:56:09;6.25;6.25;5.75
46591;PMS6003;32314;48.748;9.656;2023-07-29T20:58:58;6.25;6.25;5.50
46591;PMS6003;32314;48.748;9.656;2023-07-29T21:01:47;7.00;7.00;5.25
46591;PMS6003;32314;48.748;9.656;2023-07-29T21:04:51;8.00;8.00;7.00
46591;PMS6003;32314;48.748;9.656;2023-07-29T21:07:43;7.50;7.50;7.00
46591;PMS6003;32314;48.748;9.656;2023-07-29T21:10:41;8.00;8.00;6.50
46591;PMS6003;32314;48.748;9.656;2023-07-29T21:13:40;6.00;6.00;5.00
46591;PMS6003;32314;48.748;9.656;2023-07-29T21:16:33;8.00;8.00;7.00
46591;PMS6003;32314;48.748;9.656;2023-07-29T21:19:34;10.25;8.50;7.00
46591;PMS6003;32314;48.748;9.656;2023-07-29T21:22:38;7.25;7.25;6.00
46591;PMS6003;32314;48.748;9.656;2023-07-29T21:25:44;8.00;8.00;6.00
46591;PMS6003;32314;48.748;9.656;2023-07-29T21:28:38;8.25;8.25;6.00
46591;PMS6003;32314;48.748;9.656;2023-07-29T21:31:32;8.00;8.00;6.50
46591;PMS6003;32314;48.748;9.656;2023-07-29T21:34:25;6.25;6.25;5.25
46591;PMS6003;32314;48.748;9.656;2023-07-29T21:37:20;8.00;8.00;6.50
46591;PMS6003;32314;48.748;9.656;2023-07-29T21:40:12;7.00;7.00;6.00
46591;PMS6003;32314;48.748;9.656;2023-07-29T21:43:10;6.00;6.00;5.00
46591;PMS6003;32314;48.748;9.656;2023-07-29T21:46:12;6.75;6.75;5.25